Time;durP1;ratioP1;P1;durP2;ratioP2;P2;SDS_P1;SDS_P2;PMS_P1;PMS_P2;Temp;Humidity;BMP_temperature;BMP_pressure;BME280_temperature;BME280_humidity;BME280_pressure;Samples;Min_cycle;Max_cycle;Signal;HPM_P1;HPM_P2
2023/01/24 00:01:58;;;;;;;;;35.33;31.00;;;;;5.49;100.00;102684.09;5048744;28;45387;-84
2023/01/24 00:04:23;;;;;;;;;31.67;29.00;;;;;5.39;100.00;102685.22;5046951;28;45445;-83
2023/01/24 00:06:49;;;;;;;;;34.33;29.67;;;;;5.44;100.00;102691.72;5046802;28;44756;-83
2023/01/24 00:09:14;;;;;;;;;35.00;33.33;;;;;5.44;100.00;102682.91;5029311;28;45137;-83
2023/01/24 00:11:40;;;;;;;;;43.67;40.67;;;;;5.44;100.00;102696.09;5027847;28;45030;-84
2023/01/24 00:14:05;;;;;;;;;35.67;32.67;;;;;5.44;100.00;102685.53;5045794;28;45384;-82
2023/01/24 00:16:30;;;;;;;;;35.00;32.00;;;;;5.50;100.00;102692.13;5029331;28;45410;-83
2023/01/24 00:18:56;;;;;;;;;34.33;29.33;;;;;5.50;100.00;102692.13;5048274;28;44841;-83
2023/01/24 00:21:23;;;;;;;;;33.67;33.67;;;;;5.51;100.00;102677.19;5067062;28;45370;-83
2023/01/24 00:23:51;;;;;;;;;35.00;28.67;;;;;5.59;100.00;102694.44;5065639;28;45479;-83
2023/01/24 00:26:17;;;;;;;;;31.33;27.33;;;;;5.56;100.00;102679.31;5049218;28;45428;-83
2023/01/24 00:28:43;;;;;;;;;39.33;34.00;;;;;5.44;100.00;102680.25;5049057;28;45480;-83
2023/01/24 00:31:08;;;;;;;;;40.33;34.33;;;;;5.51;100.00;102677.19;5047927;28;45334;-83
2023/01/24 00:33:34;;;;;;;;;41.00;32.33;;;;;5.45;100.00;102660.97;5048316;28;47131;-83
2023/01/24 00:36:00;;;;;;;;;41.67;35.33;;;;;5.50;100.00;102680.66;5038518;28;45397;-83
2023/01/24 00:38:28;;;;;;;;;35.67;30.33;;;;;5.56;100.00;102673.16;5027656;28;45491;-83
2023/01/24 00:40:54;;;;;;;;;36.67;33.00;;;;;5.51;100.00;102677.19;5028544;28;45854;-83
2023/01/24 00:43:19;;;;;;;;;37.00;28.00;;;;;5.43;100.00;102674.03;5026817;28;46937;-83
2023/01/24 00:45:45;;;;;;;;;33.33;29.67;;;;;5.52;100.00;102686.94;5030020;28;44788;-83
2023/01/24 00:48:12;;;;;;;;;40.33;36.33;;;;;5.46;100.00;102668.97;5029247;28;45439;-84
2023/01/24 00:50:38;;;;;;;;;40.33;36.67;;;;;5.44;100.00;102674.97;5026654;28;45445;-84
2023/01/24 00:53:03;;;;;;;;;31.67;24.00;;;;;5.52;100.00;102684.31;5025485;28;47721;-83
2023/01/24 00:55:30;;;;;;;;;38.67;33.33;;;;;5.47;100.00;102664.59;5025133;28;45418;-83
2023/01/24 00:57:55;;;;;;;;;43.67;39.00;;;;;5.51;100.00;102685.09;5024218;28;45246;-83
2023/01/24 01:00:21;;;;;;;;;36.67;28.33;;;;;5.57;100.00;102672.31;5028175;28;45303;-83
2023/01/24 01:02:49;;;;;;;;;31.33;29.67;;;;;5.57;100.00;102680.22;5026205;28;47246;-84
2023/01/24 01:05:14;;;;;;;;;35.67;28.33;;;;;5.53;100.00;102687.03;5024592;28;45399;-84
2023/01/24 01:07:40;;;;;;;;;34.00;26.00;;;;;5.50;100.00;102683.31;5025548;28;45556;-83
2023/01/24 01:10:06;;;;;;;;;42.33;39.00;;;;;5.50;100.00;102676.28;5025789;28;45533;-82
2023/01/24 01:12:31;;;;;;;;;38.67;32.00;;;;;5.50;100.00;102670.09;5025839;28;47282;-83
2023/01/24 01:14:57;;;;;;;;;35.67;30.00;;;;;5.54;100.00;102685.31;5026521;28;45496;-83
2023/01/24 01:17:23;;;;;;;;;44.33;33.00;;;;;5.54;100.00;102682.69;5022828;28;45447;-83
2023/01/24 01:19:53;;;;;;;;;40.00;34.67;;;;;5.61;100.00;102683.19;5024531;28;45367;-83
2023/01/24 01:22:18;;;;;;;;;37.33;32.00;;;;;5.46;100.00;102681.28;5025061;28;45378;-83
2023/01/24 01:24:44;;;;;;;;;39.67;38.67;;;;;5.49;100.00;102686.72;5024218;28;45711;-82
2023/01/24 01:27:09;;;;;;;;;32.67;29.33;;;;;5.51;100.00;102687.75;5024589;28;45776;-83
2023/01/24 01:29:35;;;;;;;;;34.67;33.33;;;;;5.55;100.00;102685.41;5011463;28;45467;-83
2023/01/24 01:32:02;;;;;;;;;46.00;40.00;;;;;5.64;100.00;102690.41;5003866;28;46205;-82
2023/01/24 01:34:27;;;;;;;;;40.33;32.67;;;;;5.53;100.00;102681.75;5005783;28;45334;-82
2023/01/24 01:36:53;;;;;;;;;45.67;41.00;;;;;5.56;100.00;102688.97;5031764;28;45469;-83
2023/01/24 01:39:18;;;;;;;;;43.00;35.00;;;;;5.56;100.00;102703.09;5044680;28;45376;-83
2023/01/24 01:41:44;;;;;;;;;43.00;36.67;;;;;5.50;100.00;102685.94;5045860;28;45406;-83
2023/01/24 01:44:42;;;;;;;;;39.00;36.00;;;;;5.62;100.00;102697.31;5028873;28;45762;-83
2023/01/24 01:47:18;;;;;;;;;39.33;35.33;;;;;5.55;100.00;102695.06;5027846;28;45517;-84
2023/01/24 01:50:03;;;;;;;;;45.33;39.33;;;;;5.43;100.00;102688.97;5027850;28;45493;-83
2023/01/24 01:52:34;;;;;;;;;40.00;33.33;;;;;5.44;100.00;102697.00;5027469;28;46917;-82
2023/01/24 01:55:36;;;;;;;;;38.67;36.33;;;;;5.53;100.00;102694.03;5026426;28;45336;-83
2023/01/24 01:58:02;;;;;;;;;36.67;31.00;;;;;5.38;100.00;102686.94;5026850;28;45479;-82
2023/01/24 02:00:28;;;;;;;;;35.00;28.67;;;;;5.42;100.00;102690.72;5044785;28;45315;-82
2023/01/24 02:05:54;;;;;;;;;42.00;36.67;;;;;5.40;100.00;102700.25;5045598;28;45627;-82
2023/01/24 02:08:23;;;;;;;;;30.33;25.00;;;;;5.44;100.00;102707.56;5044578;28;45438;-82
2023/01/24 02:13:39;;;;;;;;;37.33;33.33;;;;;5.34;100.00;102700.75;5045078;28;45360;-83
2023/01/24 02:16:09;;;;;;;;;44.33;35.67;;;;;5.32;100.00;102702.38;5044929;28;45604;-83
2023/01/24 02:18:38;;;;;;;;;40.00;31.00;;;;;5.42;100.00;102698.63;5044666;28;45340;-83
2023/01/24 02:21:07;;;;;;;;;44.00;38.67;;;;;5.36;100.00;102687.66;5026666;28;45494;-83
2023/01/24 02:23:38;;;;;;;;;39.00;36.67;;;;;5.35;100.00;102699.94;5042952;28;46090;-84
2023/01/24 02:26:11;;;;;;;;;39.00;33.33;;;;;5.44;100.00;102697.00;5007093;28;45400;-83
2023/01/24 02:28:38;;;;;;;;;43.67;37.33;;;;;5.29;100.00;102698.59;5005663;28;45425;-83
2023/01/24 02:31:04;;;;;;;;;43.33;36.00;;;;;5.29;100.00;102702.19;5025521;28;45465;-83
2023/01/24 02:33:31;;;;;;;;;37.67;30.33;;;;;5.35;100.00;102697.31;5008597;28;47677;-82
2023/01/24 02:36:11;;;;;;;;;35.33;27.33;;;;;5.45;100.00;102706.72;5003055;28;45525;-83
2023/01/24 02:38:46;;;;;;;;;29.67;29.67;;;;;5.40;100.00;102703.78;5004123;28;45521;-83
2023/01/24 02:41:13;;;;;;;;;42.33;33.33;;;;;5.45;100.00;102695.25;5002519;28;45498;-82
2023/01/24 02:43:45;;;;;;;;;40.33;37.00;;;;;5.46;100.00;102694.47;5006314;28;47701;-82
2023/01/24 02:46:11;;;;;;;;;42.67;37.67;;;;;5.29;100.00;102701.25;5005227;28;45460;-82
2023/01/24 02:48:36;;;;;;;;;30.33;30.00;;;;;5.25;100.00;102702.78;5006470;28;45368;-83
2023/01/24 02:53:45;;;;;;;;;39.67;32.67;;;;;5.08;100.00;102695.44;5007356;28;45356;-83
2023/01/24 02:58:55;;;;;;;;;41.33;32.33;;;;;5.01;100.00;102700.31;5008045;28;45377;-82
2023/01/24 03:01:22;;;;;;;;;41.33;35.33;;;;;5.12;100.00;102698.38;5005697;28;45406;-82
2023/01/24 03:03:49;;;;;;;;;35.00;27.67;;;;;5.10;100.00;102705.28;5006675;28;46302;-84
2023/01/24 03:06:16;;;;;;;;;44.33;39.33;;;;;5.08;100.00;102701.63;5004486;28;45867;-83
2023/01/24 03:08:42;;;;;;;;;36.33;33.33;;;;;5.10;100.00;102709.66;5004189;28;45426;-82
2023/01/24 03:11:08;;;;;;;;;32.67;30.33;;;;;5.10;100.00;102693.81;5005125;28;45348;-83
2023/01/24 03:35:31;;;;;;;;;31.33;27.00;;;;;5.03;100.00;102694.19;5028530;28;45429;-83
2023/01/24 03:40:41;;;;;;;;;48.33;34.33;;;;;4.90;100.00;102689.81;5027401;28;45546;-83
2023/01/24 03:43:06;;;;;;;;;31.67;29.67;;;;;4.90;100.00;102701.28;5026457;28;45514;-83
2023/01/24 03:45:35;;;;;;;;;34.00;30.67;;;;;4.94;100.00;102690.13;5028086;28;46031;-82
2023/01/24 03:48:04;;;;;;;;;27.33;26.33;;;;;4.92;100.00;102689.13;5026918;28;46211;-82
2023/01/24 03:53:21;;;;;;;;;33.33;29.33;;;;;5.03;100.00;102700.41;5025589;28;45410;-83
2023/01/24 03:55:55;;;;;;;;;38.33;35.67;;;;;5.09;100.00;102711.38;5025371;28;47051;-82
2023/01/24 03:58:21;;;;;;;;;36.33;32.00;;;;;4.90;100.00;102701.28;5024639;28;45527;-83
2023/01/24 04:00:47;;;;;;;;;37.67;34.33;;;;;4.90;100.00;102688.09;5027109;28;46030;-83
2023/01/24 04:03:13;;;;;;;;;36.00;31.00;;;;;4.93;100.00;102698.88;5027440;28;45569;-82
2023/01/24 04:05:38;;;;;;;;;36.00;31.67;;;;;4.97;100.00;102690.34;5023460;28;47187;-83
2023/01/24 04:08:10;;;;;;;;;34.67;31.67;;;;;5.18;100.00;102692.63;5025021;28;45391;-83
2023/01/24 04:10:35;;;;;;;;;40.50;29.50;;;;;5.08;100.00;102693.72;5025018;28;44751;-82
2023/01/24 04:13:00;;;;;;;;;38.00;31.33;;;;;5.01;100.00;102680.94;5024348;28;45506;-83
2023/01/24 04:15:28;;;;;;;;;24.50;18.00;;;;;5.07;100.00;102693.59;5024349;28;47997;-83
2023/01/24 04:18:36;;;;;;;;;42.33;33.33;;;;;5.12;100.00;102700.13;5024707;28;45806;-82
2023/01/24 04:21:03;;;;;;;;;35.00;32.33;;;;;4.93;100.00;102690.97;5025978;28;45390;-82
2023/01/24 04:23:29;;;;;;;;;30.00;25.67;;;;;4.90;100.00;102696.00;5045681;28;45382;-82
2023/01/24 04:25:57;;;;;;;;;35.00;33.00;;;;;4.88;100.00;102697.63;5045331;28;46177;-83
2023/01/24 04:28:23;;;;;;;;;33.00;31.33;;;;;4.90;100.00;102697.75;5045029;28;45527;-83
2023/01/24 04:30:49;;;;;;;;;40.33;36.00;;;;;4.83;100.00;102677.97;5044762;28;45433;-84
2023/01/24 04:33:14;;;;;;;;;33.00;31.33;;;;;4.92;100.00;102699.66;5045746;28;45453;-83
2023/01/24 04:35:40;;;;;;;;;35.67;32.00;;;;;4.88;100.00;102694.09;5045577;28;47636;-82
2023/01/24 04:38:05;;;;;;;;;40.67;37.67;;;;;4.85;100.00;102692.16;5050029;28;45429;-82
2023/01/24 04:40:31;;;;;;;;;34.67;32.00;;;;;4.83;100.00;102685.88;5048007;28;45510;-83
2023/01/24 04:42:57;;;;;;;;;35.00;32.00;;;;;4.79;100.00;102686.47;5066291;28;45452;-84
2023/01/24 04:45:23;;;;;;;;;45.33;39.00;;;;;4.90;100.00;102696.00;5048217;28;47156;-83
2023/01/24 04:47:49;;;;;;;;;42.33;37.00;;;;;4.85;100.00;102692.16;5047894;28;45812;-84
2023/01/24 04:50:14;;;;;;;;;46.25;39.75;;;;;4.90;100.00;102700.38;5067384;28;45529;-83
2023/01/24 04:52:40;;;;;;;;;40.75;34.50;;;;;4.90;100.00;102709.19;5049511;28;44851;-82
2023/01/24 04:55:06;;;;;;;;;27.67;27.33;;;;;4.85;100.00;102699.13;5065653;28;45336;-83
2023/01/24 04:57:32;;;;;;;;;47.00;37.33;;;;;4.85;100.00;102714.94;5065229;28;45494;-82
2023/01/24 04:59:58;;;;;;;;;43.33;35.00;;;;;4.78;100.00;102713.63;5047484;28;45517;-83
2023/01/24 05:02:23;;;;;;;;;42.67;38.67;;;;;4.73;100.00;102697.50;5066093;28;45343;-82
2023/01/24 05:04:48;;;;;;;;;44.33;40.33;;;;;4.85;100.00;102712.31;5064984;28;45480;-82
2023/01/24 05:07:14;;;;;;;;;39.33;37.00;;;;;4.86;100.00;102715.06;5047600;28;45885;-83
2023/01/24 05:09:40;;;;;;;;;47.33;39.00;;;;;4.96;100.00;102704.34;5047823;28;45488;-83
2023/01/24 05:12:06;;;;;;;;;39.00;33.33;;;;;4.92;100.00;102722.47;5065375;28;45421;-83
2023/01/24 05:14:31;;;;;;;;;41.67;35.33;;;;;4.82;100.00;102718.28;5046433;28;46731;-83
2023/01/24 05:17:03;;;;;;;;;42.00;39.67;;;;;4.89;100.00;102717.91;5064598;28;45458;-84
2023/01/24 05:19:28;;;;;;;;;53.33;41.33;;;;;4.72;100.00;102715.81;5064461;28;45480;-84
2023/01/24 05:21:54;;;;;;;;;48.00;40.75;;;;;4.71;100.00;102719.28;5045372;28;45494;-83
2023/01/24 05:24:19;;;;;;;;;37.33;34.67;;;;;4.67;100.00;102728.69;5035639;28;46180;-83
2023/01/24 05:26:45;;;;;;;;;46.00;40.67;;;;;4.65;100.00;102716.22;5024697;28;45668;-83
2023/01/24 05:29:10;;;;;;;;;41.33;38.67;;;;;4.68;100.00;102719.06;5034800;28;45454;-82
2023/01/24 05:31:35;;;;;;;;;47.25;39.50;;;;;4.77;100.00;102727.63;5026191;28;45561;-84
2023/01/24 05:34:02;;;;;;;;;53.75;42.50;;;;;4.82;100.00;102720.94;5024762;28;47681;-83
2023/01/24 05:36:27;;;;;;;;;49.25;39.50;;;;;4.82;100.00;102716.56;5023790;28;45468;-82
2023/01/24 05:38:53;;;;;;;;;39.67;23.00;;;;;4.77;100.00;102712.72;5026165;28;45277;-83
2023/01/24 05:41:20;;;;;;;;;49.25;43.00;;;;;4.89;100.00;102719.63;5026667;28;45346;-83
2023/01/24 05:43:46;;;;;;;;;49.75;45.00;;;;;4.79;100.00;102731.28;5027305;28;48426;-83
2023/01/24 05:46:14;;;;;;;;;47.50;44.00;;;;;4.78;100.00;102729.44;5025087;28;45356;-83
2023/01/24 05:48:42;;;;;;;;;63.33;45.67;;;;;4.74;100.00;102740.56;5023868;28;45475;-83
2023/01/24 05:51:09;;;;;;;;;53.33;44.67;;;;;4.67;100.00;102733.97;5023777;28;45551;-84
2023/01/24 05:53:37;;;;;;;;;56.67;44.33;;;;;4.65;100.00;102726.78;5024679;28;45502;-83
2023/01/24 05:56:06;;;;;;;;;39.67;35.00;;;;;4.70;100.00;102739.44;5023350;28;45419;-82
2023/01/24 06:01:53;;;;;;;;;44.00;40.00;;;;;4.63;100.00;102744.19;5024381;28;45473;-83
2023/01/24 06:04:18;;;;;;;;;59.00;49.00;;;;;4.55;100.00;102743.66;5022848;28;49085;-82
2023/01/24 06:06:44;;;;;;;;;44.75;39.25;;;;;4.55;100.00;102752.47;5023557;28;45801;-83
2023/01/24 06:09:09;;;;;;;;;52.67;44.67;;;;;4.49;100.00;102737.94;5023403;28;45873;-85
2023/01/24 06:11:35;;;;;;;;;50.00;41.33;;;;;4.44;100.00;102732.31;5023944;28;45784;-84
2023/01/24 06:14:00;;;;;;;;;51.67;37.67;;;;;4.55;100.00;102755.09;5022965;28;48546;-83
2023/01/24 06:16:28;;;;;;;;;51.00;41.00;;;;;4.61;100.00;102752.00;5022548;28;45459;-82
2023/01/24 06:18:54;;;;;;;;;52.67;40.33;;;;;4.57;100.00;102748.22;5023014;28;45429;-82
2023/01/24 06:21:38;;;;;;;;;54.00;44.75;;;;;4.75;100.00;102752.97;5021918;28;45553;-82
2023/01/24 06:30:59;;;;;;;;;49.00;42.75;;;;;4.46;100.00;102745.63;5025192;28;45499;-83
2023/01/24 06:33:45;;;;;;;;;34.00;30.33;;;;;4.53;100.00;102766.34;5023988;28;45708;-83
2023/01/24 06:36:21;;;;;;;;;46.00;39.67;;;;;4.53;100.00;102761.06;5024477;28;48073;-82
2023/01/24 06:38:46;;;;;;;;;36.33;28.00;;;;;4.46;100.00;102769.31;5026097;28;45434;-82
2023/01/24 06:41:16;;;;;;;;;40.33;37.67;;;;;4.56;100.00;102766.53;5025871;28;45367;-82
2023/01/24 06:43:43;;;;;;;;;48.00;42.75;;;;;4.49;100.00;102770.47;5045469;28;45410;-83
2023/01/24 06:46:09;;;;;;;;;53.00;42.67;;;;;4.48;100.00;102763.34;5028514;28;47127;-82
2023/01/24 06:48:35;;;;;;;;;52.00;44.00;;;;;4.50;100.00;102764.38;5045933;28;45777;-83
2023/01/24 06:51:38;;;;;;;;;32.67;32.67;;;;;4.80;100.00;102773.53;5029443;28;46692;-84
2023/01/24 06:54:03;;;;;;;;;43.33;39.33;;;;;4.65;100.00;102763.66;5028323;28;45459;-83
2023/01/24 06:56:29;;;;;;;;;54.33;42.00;;;;;4.68;100.00;102766.50;5046990;28;45811;-84
2023/01/24 06:58:54;;;;;;;;;45.00;41.67;;;;;4.67;100.00;102769.97;5046487;28;45786;-84
2023/01/24 07:01:19;;;;;;;;;52.00;41.00;;;;;4.64;100.00;102761.81;5046740;28;45727;-82
2023/01/24 07:03:45;;;;;;;;;49.33;42.00;;;;;4.62;100.00;102759.06;5029946;28;45552;-84
2023/01/24 07:06:10;;;;;;;;;57.00;40.33;;;;;4.68;100.00;102782.31;5019134;28;48098;-83
2023/01/24 07:08:36;;;;;;;;;49.67;40.67;;;;;4.60;100.00;102780.06;5043389;28;45507;-84
2023/01/24 07:11:03;;;;;;;;;55.00;43.67;;;;;4.73;100.00;102776.56;5046631;28;45323;-84
2023/01/24 07:13:28;;;;;;;;;56.67;45.67;;;;;4.70;100.00;102780.69;5044228;28;45351;-84
2023/01/24 07:15:53;;;;;;;;;53.67;44.67;;;;;4.76;100.00;102782.03;5027924;28;47417;-83
2023/01/24 07:18:19;;;;;;;;;42.67;41.33;;;;;4.73;100.00;102766.03;5052175;28;45173;-84
2023/01/24 07:20:45;;;;;;;;;49.25;36.50;;;;;4.74;100.00;102778.38;5029482;28;45517;-83
2023/01/24 07:23:23;;;;;;;;;59.50;48.75;;;;;4.75;100.00;102767.03;5027525;28;45400;-83
2023/01/24 07:25:52;;;;;;;;;51.75;45.25;;;;;4.75;100.00;102787.22;5046703;28;45362;-85
2023/01/24 07:28:18;;;;;;;;;54.00;43.25;;;;;4.75;100.00;102792.50;5047634;28;45266;-84
2023/01/24 07:30:45;;;;;;;;;60.00;45.00;;;;;4.76;100.00;102781.13;5029047;28;45245;-84
2023/01/24 07:33:12;;;;;;;;;51.33;42.00;;;;;4.80;100.00;102785.81;5047071;28;45370;-84
2023/01/24 07:35:38;;;;;;;;;58.25;44.75;;;;;4.85;100.00;102794.97;5026822;28;47107;-84
2023/01/24 07:38:03;;;;;;;;;48.75;40.75;;;;;4.95;100.00;102794.81;5044494;28;45451;-83
2023/01/24 07:40:29;;;;;;;;;53.50;44.00;;;;;4.96;100.00;102801.91;5028015;28;45906;-84
2023/01/24 07:42:54;;;;;;;;;55.75;45.25;;;;;4.89;100.00;102804.94;5045736;28;45425;-84
2023/01/24 07:45:20;;;;;;;;;47.50;40.25;;;;;4.86;100.00;102798.53;5047291;28;46298;-84
2023/01/24 07:47:45;;;;;;;;;63.00;51.25;;;;;4.91;100.00;102812.91;5047361;28;45434;-83
2023/01/24 07:50:19;;;;;;;;;58.25;47.25;;;;;4.87;100.00;102796.00;5028718;28;45439;-83
2023/01/24 07:52:44;;;;;;;;;53.33;44.33;;;;;4.91;100.00;102811.22;5047916;28;45465;-83
2023/01/24 07:55:10;;;;;;;;;50.50;42.00;;;;;4.89;100.00;102802.28;5028901;28;48363;-83
2023/01/24 07:57:41;;;;;;;;;57.00;45.25;;;;;4.80;100.00;102793.72;5028631;28;45461;-84
2023/01/24 08:00:07;;;;;;;;;53.25;42.75;;;;;4.67;100.00;102791.03;5029479;28;45685;-85
2023/01/24 08:02:33;;;;;;;;;52.75;43.50;;;;;4.88;100.00;102824.19;5031783;28;45487;-85
2023/01/24 08:04:59;;;;;;;;;55.75;45.75;;;;;4.72;100.00;102798.44;5029997;28;47141;-86
2023/01/24 08:07:26;;;;;;;;;52.67;46.33;;;;;4.77;100.00;102815.50;5012741;28;45997;-84
2023/01/24 08:09:52;;;;;;;;;61.25;47.25;;;;;4.67;100.00;102806.84;5032555;28;44912;-84
2023/01/24 08:12:18;;;;;;;;;58.00;43.67;;;;;4.83;100.00;102825.59;5033665;28;45349;-83
2023/01/24 08:14:43;;;;;;;;;53.50;46.25;;;;;4.75;100.00;102816.22;5031696;28;46907;-83
2023/01/24 08:17:10;;;;;;;;;45.33;40.00;;;;;4.79;100.00;102818.28;5051688;28;45327;-83
2023/01/24 08:19:35;;;;;;;;;58.33;47.67;;;;;4.77;100.00;102820.78;5033092;28;44818;-83
2023/01/24 08:22:02;;;;;;;;;55.33;44.33;;;;;4.78;100.00;102800.59;5033341;28;45217;-82
2023/01/24 08:24:28;;;;;;;;;58.67;44.67;;;;;4.67;100.00;102785.78;5020819;28;47551;-83
2023/01/24 08:26:55;;;;;;;;;59.25;43.75;;;;;4.89;100.00;102814.53;5035501;28;45748;-84
2023/01/24 08:29:22;;;;;;;;;48.00;43.00;;;;;4.86;100.00;102819.59;5039475;28;45419;-85
2023/01/24 08:32:06;;;;;;;;;48.00;40.33;;;;;4.91;100.00;102845.50;5055871;28;45359;-84
2023/01/24 08:34:32;;;;;;;;;36.67;31.33;;;;;4.57;100.00;102805.28;5053391;28;46791;-85
2023/01/24 08:36:58;;;;;;;;;49.25;42.75;;;;;4.65;100.00;102835.72;5024133;28;45684;-83
2023/01/24 08:39:23;;;;;;;;;51.33;44.00;;;;;4.74;100.00;102835.47;5028768;28;45271;-82
2023/01/24 08:41:48;;;;;;;;;56.75;46.00;;;;;4.92;100.00;102852.59;5031472;28;45403;-82
2023/01/24 08:44:18;;;;;;;;;59.00;48.75;;;;;4.96;100.00;102843.19;5028749;28;47022;-83
2023/01/24 08:47:16;;;;;;;;;47.67;38.33;;;;;5.20;100.00;102849.25;5032695;28;44789;-83
2023/01/24 08:49:41;;;;;;;;;64.75;51.25;;;;;4.88;100.00;102812.72;4932460;28;45342;-81
2023/01/24 08:52:07;;;;;;;;;57.75;44.75;;;;;5.10;100.00;102846.78;4945175;28;45492;-83
2023/01/24 08:54:54;;;;;;;;;50.50;43.50;;;;;5.03;100.00;102834.91;4917580;28;45673;-84
2023/01/24 08:57:20;;;;;;;;;54.50;45.00;;;;;5.17;100.00;102867.50;4931398;28;45380;-82
2023/01/24 08:59:48;;;;;;;;;59.33;47.00;;;;;5.09;100.00;102851.16;4950942;28;45417;-81
2023/01/24 09:02:16;;;;;;;;;50.50;42.25;;;;;4.95;100.00;102828.19;4951291;28;44925;-83
2023/01/24 09:04:42;;;;;;;;;36.33;36.33;;;;;4.93;100.00;102825.44;4934569;28;47088;-82
2023/01/24 09:07:11;;;;;;;;;62.00;47.25;;;;;5.03;100.00;102847.16;4951459;28;45366;-82
2023/01/24 09:09:37;;;;;;;;;62.67;48.67;;;;;5.14;100.00;102881.41;4935785;28;45311;-84
2023/01/24 09:12:03;;;;;;;;;61.75;49.50;;;;;4.94;100.00;102861.53;4939283;28;45705;-84
2023/01/24 09:14:29;;;;;;;;;58.00;44.33;;;;;4.86;100.00;102835.44;4930255;28;47208;-83
2023/01/24 09:16:54;;;;;;;;;57.25;43.75;;;;;5.07;100.00;102858.06;4926613;28;45550;-83
2023/01/24 09:19:23;;;;;;;;;62.25;48.00;;;;;5.26;100.00;102872.53;4983556;28;45326;-83
2023/01/24 09:21:51;;;;;;;;;54.33;44.00;;;;;5.25;100.00;102866.34;5029635;28;45602;-84
2023/01/24 09:24:18;;;;;;;;;48.00;40.25;;;;;5.25;100.00;102842.59;5028857;28;47915;-84
2023/01/24 09:26:45;;;;;;;;;54.75;45.50;;;;;5.30;100.00;102827.97;5026617;28;45585;-81
2023/01/24 09:29:14;;;;;;;;;51.00;43.00;;;;;5.54;100.00;102878.00;5009397;28;45456;-82
2023/01/24 09:31:39;;;;;;;;;50.33;41.67;;;;;5.35;100.00;102845.06;5028320;28;45699;-80
2023/01/24 09:34:07;;;;;;;;;60.00;45.33;;;;;5.49;100.00;102875.00;5010667;28;46860;-83
2023/01/24 09:36:33;;;;;;;;;54.00;42.33;;;;;5.39;100.00;102867.28;5033512;28;45376;-82
2023/01/24 09:39:01;;;;;;;;;60.00;47.00;;;;;5.44;100.00;102880.81;5049175;28;45315;-83
2023/01/24 09:41:57;;;;;;;;;48.33;41.33;;;;;5.48;100.00;102877.56;5034844;28;45479;-82
2023/01/24 09:52:34;;;;;;;;;55.00;40.25;;;;;5.62;100.00;102887.34;5136945;23;46464;-83
2023/01/24 09:55:22;;;;;;;;;53.25;43.50;;;;;5.64;100.00;102884.81;4978025;28;45498;-83
2023/01/24 09:57:54;;;;;;;;;51.50;44.00;;;;;5.60;100.00;102886.34;4970589;28;45373;-82
2023/01/24 10:00:28;;;;;;;;;62.00;47.00;;;;;5.53;100.00;102868.22;4965760;28;45411;-82
2023/01/24 10:02:57;;;;;;;;;52.00;40.00;;;;;5.62;100.00;102882.06;4966205;28;45467;-82
2023/01/24 10:05:31;;;;;;;;;49.67;40.00;;;;;5.71;100.00;102890.59;4967269;28;48073;-82
2023/01/24 10:08:25;;;;;;;;;57.67;45.00;;;;;5.69;100.00;102879.03;4971390;28;46753;-83
2023/01/24 10:10:59;;;;;;;;;51.00;44.67;;;;;5.70;100.00;102879.97;4954447;28;45583;-82
2023/01/24 10:13:59;;;;;;;;;51.33;44.00;;;;;5.93;100.00;102900.00;4972502;28;45475;-82
2023/01/24 10:17:07;;;;;;;;;51.33;44.00;;;;;5.90;100.00;102889.22;4962342;28;47168;-83
2023/01/24 10:19:51;;;;;;;;;49.67;43.33;;;;;5.79;100.00;102902.59;4965654;28;45900;-83
2023/01/24 10:22:52;;;;;;;;;46.00;37.67;;;;;5.79;100.00;102872.66;4964445;28;45310;-84
2023/01/24 10:25:42;;;;;;;;;59.25;47.75;;;;;5.97;100.00;102891.50;4984492;28;45407;-82
2023/01/24 10:28:22;;;;;;;;;51.00;42.67;;;;;5.94;100.00;102889.53;4967863;28;47578;-82
2023/01/24 10:31:05;;;;;;;;;48.67;41.67;;;;;5.99;100.00;102885.50;4958727;28;46056;-85
2023/01/24 10:33:39;;;;;;;;;54.67;42.33;;;;;5.98;100.00;102888.06;4962867;28;45497;-82
2023/01/24 10:36:19;;;;;;;;;49.00;41.00;;;;;6.03;100.00;102886.63;4955701;28;44859;-82
2023/01/24 10:42:00;;;;;;;;;45.33;40.33;;;;;5.91;100.00;102880.50;4907126;29;45389;-82
2023/01/24 10:44:28;;;;;;;;;46.67;40.00;;;;;6.04;100.00;102883.19;4907198;29;45430;-81
2023/01/24 10:47:05;;;;;;;;;50.33;43.67;;;;;6.20;100.00;102890.38;4911160;29;45467;-83
2023/01/24 10:49:36;;;;;;;;;46.67;40.33;;;;;6.20;100.00;102885.09;4912594;29;46355;-84
2023/01/24 10:52:16;;;;;;;;;55.67;40.33;;;;;6.24;100.00;102878.28;4938673;28;45547;-83
2023/01/24 10:54:56;;;;;;;;;44.00;40.00;;;;;6.09;100.00;102870.28;4948639;28;45425;-82
2023/01/24 10:57:49;;;;;;;;;55.00;45.00;;;;;6.05;100.00;102866.50;4952213;28;45407;-82
2023/01/24 11:00:14;;;;;;;;;46.00;39.67;;;;;5.91;100.00;102868.19;4952928;28;46224;-84
2023/01/24 11:02:40;;;;;;;;;51.67;44.00;;;;;5.95;100.00;102856.16;4935351;28;45423;-84
2023/01/24 11:05:12;;;;;;;;;52.00;42.00;;;;;6.00;100.00;102860.94;4947647;28;45488;-83
2023/01/24 11:07:46;;;;;;;;;55.33;43.00;;;;;6.15;100.00;102857.47;4945453;28;45911;-82
2023/01/24 11:10:33;;;;;;;;;59.67;44.67;;;;;6.21;100.00;102861.44;4927601;28;48364;-82
2023/01/24 11:13:01;;;;;;;;;47.67;41.33;;;;;6.13;100.00;102857.38;4948172;28;45403;-84
2023/01/24 11:15:35;;;;;;;;;40.00;37.67;;;;;6.29;100.00;102858.38;4957368;28;45246;-83
2023/01/24 11:18:20;;;;;;;;;53.67;43.33;;;;;6.22;100.00;102846.47;4981443;28;45548;-83
2023/01/24 11:20:46;;;;;;;;;55.33;44.00;;;;;6.13;100.00;102849.44;4992372;28;45474;-83
2023/01/24 11:23:21;;;;;;;;;63.67;48.67;;;;;6.30;100.00;102845.28;5000467;28;44976;-81
2023/01/24 11:26:01;;;;;;;;;52.67;42.33;;;;;6.34;100.00;102843.72;4984290;28;45377;-82
2023/01/24 11:28:58;;;;;;;;;54.33;46.00;;;;;6.32;100.00;102833.09;4999965;28;45533;-84
2023/01/24 11:31:40;;;;;;;;;48.00;41.50;;;;;6.46;100.00;102844.53;4982929;28;47312;-83
2023/01/24 11:34:40;;;;;;;;;51.00;43.33;;;;;6.52;100.00;102842.28;4991560;28;45467;-84
2023/01/24 11:37:21;;;;;;;;;47.33;39.67;;;;;6.55;100.00;102839.84;4972225;28;45590;-80
2023/01/24 11:40:18;;;;;;;;;50.33;42.00;;;;;6.54;100.00;102829.16;4982917;28;45435;-82
2023/01/24 11:43:11;;;;;;;;;44.00;39.33;;;;;6.67;100.00;102830.88;4988218;28;48749;-83
2023/01/24 11:45:52;;;;;;;;;48.67;41.67;;;;;6.67;100.00;102833.53;4991401;28;44976;-82
2023/01/24 11:48:45;;;;;;;;;46.67;42.00;;;;;6.68;100.00;102830.06;5007056;28;45404;-83
2023/01/24 11:51:25;;;;;;;;;41.67;38.67;;;;;6.66;100.00;102829.03;4986652;28;45290;-82
2023/01/24 11:54:20;;;;;;;;;48.67;44.00;;;;;6.67;100.00;102815.91;4984181;28;45704;-83
2023/01/24 11:57:06;;;;;;;;;58.67;45.67;;;;;6.65;100.00;102817.56;5005119;28;45518;-81
2023/01/24 11:59:58;;;;;;;;;58.67;46.00;;;;;6.67;100.00;102822.94;4993308;28;45433;-83
2023/01/24 12:03:27;;;;;;;;;;;;;;;;;;;;;
2023/01/24 12:06:25;;;;;;;;;54.33;44.33;;;;;6.75;100.00;102804.09;4943798;28;74360;-82
2023/01/24 12:09:24;;;;;;;;;44.00;36.67;;;;;6.77;100.00;102813.03;4969710;28;45518;-85
2023/01/24 12:12:10;;;;;;;;;43.33;39.33;;;;;6.67;100.00;102807.09;4950034;28;45524;-83
2023/01/24 12:14:51;;;;;;;;;41.00;39.67;;;;;6.72;100.00;102808.28;4978283;28;45444;-84
2023/01/24 12:17:25;;;;;;;;;44.33;41.00;;;;;6.67;100.00;102804.44;4975350;28;45233;-85
2023/01/24 12:20:29;;;;;;;;;;;;;;;;;;;;;
2023/01/24 12:22:57;;;;;;;;;48.33;39.33;;;;;6.58;100.00;102789.81;4958940;28;67891;-84
2023/01/24 12:25:36;;;;;;;;;41.00;37.67;;;;;6.68;100.00;102800.97;4974012;28;45333;-83
2023/01/24 12:28:05;;;;;;;;;43.00;39.67;;;;;6.63;100.00;102786.56;4992644;28;45427;-81
2023/01/24 12:30:37;;;;;;;;;44.67;37.33;;;;;6.59;100.00;102791.63;5000705;28;45437;-81